createdAt,value
2023-04-09T00:00:11.046Z,100685.97
2023-04-09T00:03:01.618Z,100691.75
2023-04-09T00:05:49.516Z,100698.88
2023-04-09T00:08:37.178Z,100706.81
2023-04-09T00:11:25.000Z,100694.03
2023-04-09T00:14:12.701Z,100707.63
2023-04-09T00:17:00.492Z,100702.28
2023-04-09T00:19:48.828Z,100710.84
2023-04-09T00:22:36.701Z,100687.41
2023-04-09T00:25:24.853Z,100707.44
2023-04-09T00:28:12.650Z,100707.13
2023-04-09T00:31:00.697Z,100707.91
2023-04-09T00:33:48.623Z,100669.47
2023-04-09T00:36:36.438Z,100703.41
2023-04-09T00:39:24.212Z,100704.22
2023-04-09T00:42:11.944Z,100713.94
2023-04-09T00:45:00.206Z,100712.31
2023-04-09T00:47:48.053Z,100699.38
2023-04-09T00:50:36.550Z,100720.38
2023-04-09T00:53:24.306Z,100716.84
2023-04-09T00:56:13.646Z,100716.84
2023-04-09T00:59:01.398Z,100721.19
2023-04-09T01:01:49.301Z,100673.50
2023-04-09T01:04:37.560Z,100708.78
2023-04-09T01:08:09.385Z,100700.00
2023-04-09T01:11:10.113Z,100709.91
2023-04-09T01:14:09.843Z,100712.47
2023-04-09T01:17:04.656Z,100717.97
2023-04-09T01:20:09.397Z,100701.47
2023-04-09T01:23:17.193Z,100712.47
2023-04-09T01:26:19.595Z,100706.81
2023-04-09T01:29:17.236Z,100705.84
2023-04-09T01:32:07.549Z,100697.13
2023-04-09T01:34:56.552Z,100701.66
2023-04-09T01:37:44.697Z,100714.75
2023-04-09T01:40:32.481Z,100694.69
2023-04-09T01:43:21.415Z,100699.72
2023-04-09T01:46:10.826Z,100701.00
2023-04-09T01:48:59.670Z,100711.66
2023-04-09T01:51:47.981Z,100706.66
2023-04-09T01:54:35.908Z,100719.75
2023-04-09T01:57:23.558Z,100714.09
2023-04-09T02:00:12.553Z,100721.72
2023-04-09T02:03:38.379Z,100713.47
2023-04-09T02:06:39.050Z,100695.00
2023-04-09T02:09:31.328Z,100718.16
2023-04-09T02:12:20.050Z,100693.41
2023-04-09T02:15:08.777Z,100707.16
2023-04-09T02:17:56.908Z,100705.50
2023-04-09T02:20:44.556Z,100711.00
2023-04-09T02:23:35.405Z,100713.75
2023-04-09T02:26:24.314Z,100720.06
2023-04-09T02:29:14.383Z,100715.22
2023-04-09T02:32:02.046Z,100708.78
2023-04-09T02:34:49.901Z,100717.66
2023-04-09T02:37:37.514Z,100684.81
2023-04-09T02:40:25.685Z,100722.34
2023-04-09T02:43:13.961Z,100704.72
2023-04-09T02:46:01.794Z,100719.09
2023-04-09T02:48:50.842Z,100690.47
2023-04-09T02:51:38.882Z,100653.28
2023-04-09T02:54:26.597Z,100713.59
2023-04-09T02:57:14.402Z,100720.91
2023-04-09T03:00:02.182Z,100704.69
2023-04-09T03:02:50.321Z,100717.81
2023-04-09T03:05:39.163Z,100691.78
2023-04-09T03:08:26.981Z,100711.34
2023-04-09T03:11:14.859Z,100651.50
2023-04-09T03:14:03.060Z,100710.53
2023-04-09T03:16:50.803Z,100672.69
2023-04-09T03:19:39.349Z,100674.13
2023-04-09T03:22:27.026Z,100727.19
2023-04-09T03:25:14.910Z,100726.03
2023-04-09T03:28:03.413Z,100725.91
2023-04-09T03:31:01.347Z,100717.97
2023-04-09T03:33:54.281Z,100723.31
2023-04-09T03:36:42.207Z,100718.59
2023-04-09T03:39:35.818Z,100728.00
2023-04-09T03:42:23.721Z,100726.38
2023-04-09T03:45:11.728Z,100728.00
2023-04-09T03:48:04.700Z,100725.06
2023-04-09T03:50:53.974Z,100645.50
2023-04-09T03:53:50.656Z,100708.59
2023-04-09T03:56:38.875Z,100704.84
2023-04-09T03:59:29.811Z,100746.25
2023-04-09T04:02:17.737Z,100735.44
2023-04-09T04:05:12.006Z,100738.00
2023-04-09T04:08:05.881Z,100750.63
2023-04-09T04:10:53.620Z,100756.13
2023-04-09T04:13:41.495Z,100723.63
2023-04-09T04:16:30.796Z,100720.72
2023-04-09T04:19:18.450Z,100736.59
2023-04-09T04:22:09.385Z,100753.56
2023-04-09T04:25:00.676Z,100727.03
2023-04-09T04:27:50.865Z,100641.81
2023-04-09T04:30:43.132Z,100723.00
2023-04-09T04:33:31.630Z,100730.59
2023-04-09T04:36:20.277Z,100748.56
2023-04-09T04:39:11.465Z,100756.94
2023-04-09T04:42:19.358Z,100752.91
2023-04-09T04:45:08.987Z,100757.28
2023-04-09T04:48:06.963Z,100754.84
2023-04-09T04:51:02.166Z,100767.81
2023-04-09T04:53:58.255Z,100728.50
2023-04-09T04:56:46.413Z,100760.34
2023-04-09T04:59:45.616Z,100741.09
2023-04-09T05:02:35.276Z,100767.94
2023-04-09T05:05:38.714Z,100759.34
2023-04-09T05:08:26.990Z,100751.28
2023-04-09T05:11:17.192Z,100757.28
2023-04-09T05:14:08.206Z,100766.47
2023-04-09T05:16:56.009Z,100783.78
2023-04-09T05:19:53.019Z,100779.41
2023-04-09T05:22:46.592Z,100765.50
2023-04-09T05:25:34.908Z,100780.22
2023-04-09T05:28:24.049Z,100781.84
2023-04-09T05:31:22.870Z,100765.66
2023-04-09T05:34:31.051Z,100766.78
2023-04-09T05:37:19.111Z,100742.84
2023-04-09T05:40:12.161Z,100770.69
2023-04-09T05:43:01.567Z,100703.88
2023-04-09T05:46:00.282Z,100763.38
2023-04-09T05:48:48.368Z,100734.00
2023-04-09T05:51:36.159Z,100762.59
2023-04-09T05:54:27.224Z,100763.22
2023-04-09T05:57:15.621Z,100760.94
2023-04-09T06:00:08.715Z,100757.47
2023-04-09T06:03:05.777Z,100754.47
2023-04-09T06:05:55.006Z,100759.09
2023-04-09T06:08:45.177Z,100768.16
2023-04-09T06:11:34.062Z,100758.13
2023-04-09T06:14:23.920Z,100761.09
2023-04-09T06:17:11.748Z,100751.28
2023-04-09T06:19:59.594Z,100758.59
2023-04-09T06:22:47.311Z,100726.81
2023-04-09T06:25:36.758Z,100766.97
2023-04-09T06:28:24.546Z,100747.66
2023-04-09T06:31:12.508Z,100767.53
2023-04-09T06:34:00.609Z,100744.50
2023-04-09T06:36:48.336Z,100759.59
2023-04-09T06:39:37.338Z,100726.69
2023-04-09T06:42:27.089Z,100755.59
2023-04-09T06:45:40.229Z,100744.56
2023-04-09T06:48:28.634Z,100758.00
2023-04-09T06:51:16.725Z,100750.75
2023-04-09T06:54:04.668Z,100765.72
2023-04-09T06:56:52.403Z,100733.56
2023-04-09T06:59:40.098Z,100746.16
2023-04-09T07:02:28.344Z,100717.50
2023-04-09T07:05:16.289Z,100758.41
2023-04-09T07:08:04.546Z,100745.28
2023-04-09T07:10:52.255Z,100758.41
2023-04-09T07:13:39.947Z,100767.50
2023-04-09T07:16:27.612Z,100769.25
2023-04-09T07:19:15.794Z,100765.88
2023-04-09T07:22:03.334Z,100763.03
2023-04-09T07:24:54.449Z,100738.41
2023-04-09T07:27:42.905Z,100780.69
2023-04-09T07:30:30.932Z,100789.03
2023-04-09T07:33:18.605Z,100775.97
2023-04-09T07:36:07.083Z,100738.78
2023-04-09T07:38:55.143Z,100784.44
2023-04-09T07:41:43.400Z,100791.19
2023-04-09T07:44:36.925Z,100753.75
2023-04-09T07:47:25.002Z,100787.13
2023-04-09T07:50:12.652Z,100782.94
2023-04-09T07:53:00.574Z,100777.28
2023-04-09T07:55:48.226Z,100755.28
2023-04-09T07:58:38.396Z,100770.25
2023-04-09T08:01:26.801Z,100778.19
2023-04-09T08:04:16.097Z,100742.59
2023-04-09T08:07:03.854Z,100774.41
2023-04-09T08:09:51.734Z,100777.00
2023-04-09T08:12:39.385Z,100769.34
2023-04-09T08:15:27.385Z,100770.16
2023-04-09T08:18:15.017Z,100774.88
2023-04-09T08:21:05.570Z,100742.91
2023-04-09T08:23:53.222Z,100779.47
2023-04-09T08:26:42.257Z,100760.25
2023-04-09T08:29:30.050Z,100763.19
2023-04-09T08:32:17.857Z,100779.16
2023-04-09T08:35:06.566Z,100792.25
2023-04-09T08:37:56.777Z,100788.25
2023-04-09T08:40:44.500Z,100766.22
2023-04-09T08:43:52.592Z,100781.09
2023-04-09T08:46:42.253Z,100779.03
2023-04-09T08:49:33.162Z,100782.41
2023-04-09T08:52:34.749Z,100797.41
2023-04-09T08:55:22.799Z,100788.13
2023-04-09T08:58:13.304Z,100788.09
2023-04-09T09:01:02.224Z,100761.91
2023-04-09T09:04:09.262Z,100788.94
2023-04-09T09:07:10.606Z,100743.97
2023-04-09T09:10:00.978Z,100772.88
2023-04-09T09:12:52.083Z,100747.59
2023-04-09T09:15:39.698Z,100763.56
2023-04-09T09:18:41.830Z,100765.19
2023-04-09T09:21:30.414Z,100759.00
2023-04-09T09:24:18.416Z,100760.63
2023-04-09T09:27:06.132Z,100756.69
2023-04-09T09:29:53.891Z,100747.16
2023-04-09T09:32:42.696Z,100741.63
2023-04-09T09:35:30.646Z,100757.16
2023-04-09T09:38:18.755Z,100736.28
2023-04-09T09:41:19.772Z,100740.66
2023-04-09T09:44:11.945Z,100745.56
2023-04-09T09:47:01.005Z,100748.72
2023-04-09T09:49:52.395Z,100731.91
2023-04-09T09:52:44.964Z,100737.56
2023-04-09T09:55:33.858Z,100694.09
2023-04-09T09:58:47.536Z,100734.81
2023-04-09T10:01:38.380Z,100737.81
2023-04-09T10:04:29.903Z,100741.53
2023-04-09T10:07:18.149Z,100733.88
2023-04-09T10:10:07.688Z,100719.75
2023-04-09T10:12:56.452Z,100706.44
2023-04-09T10:15:44.990Z,100692.53
2023-04-09T10:18:33.853Z,100730.66
2023-04-09T10:21:46.305Z,100734.66
2023-04-09T10:24:35.170Z,100731.56
2023-04-09T10:27:22.843Z,100731.16
2023-04-09T10:30:10.964Z,100725.53
2023-04-09T10:33:13.523Z,100741.84
2023-04-09T10:36:04.875Z,100730.53
2023-04-09T10:38:53.000Z,100739.09
2023-04-09T10:41:42.363Z,100734.94
2023-04-09T10:44:32.780Z,100733.16
2023-04-09T10:47:34.401Z,100732.59
2023-04-09T10:50:23.915Z,100726.47
2023-04-09T10:53:26.400Z,100732.84
2023-04-09T10:56:17.563Z,100732.56
2023-04-09T10:59:05.153Z,100719.78
2023-04-09T11:01:54.926Z,100694.50
2023-04-09T11:05:21.263Z,100706.50
2023-04-09T11:08:13.274Z,100706.28
2023-04-09T11:11:02.102Z,100718.25
2023-04-09T11:13:50.177Z,100711.03
2023-04-09T11:16:37.966Z,100710.13
2023-04-09T11:19:26.560Z,100685.28
2023-04-09T11:22:14.281Z,100706.13
2023-04-09T11:25:01.996Z,100596.44
2023-04-09T11:27:51.038Z,100645.59
2023-04-09T11:30:38.940Z,100698.06
2023-04-09T11:33:35.569Z,100682.16
2023-04-09T11:36:23.563Z,100685.16
2023-04-09T11:39:11.289Z,100690.41
2023-04-09T11:41:59.075Z,100674.59
2023-04-09T11:44:47.069Z,100688.50
2023-04-09T11:47:35.597Z,100676.28
2023-04-09T11:50:23.623Z,100647.81
2023-04-09T11:53:24.059Z,100685.34
2023-04-09T11:56:12.196Z,100647.59
2023-04-09T11:59:00.138Z,100675.75
2023-04-09T12:01:52.155Z,100641.50
2023-04-09T12:04:49.807Z,100659.34
2023-04-09T12:07:39.609Z,100636.81
2023-04-09T12:10:30.654Z,100645.81
2023-04-09T12:13:18.497Z,100646.53
2023-04-09T12:16:06.355Z,100556.47
2023-04-09T12:18:56.050Z,100650.31
2023-04-09T12:21:56.001Z,100643.94
2023-04-09T12:24:43.694Z,100634.91
2023-04-09T12:27:33.848Z,100632.47
2023-04-09T12:30:21.745Z,100634.97
2023-04-09T12:33:10.911Z,100639.69
2023-04-09T12:35:59.757Z,100634.72
2023-04-09T12:38:47.562Z,100626.69
2023-04-09T12:41:35.226Z,100638.88
2023-04-09T12:44:22.999Z,100610.72
2023-04-09T12:47:10.643Z,100594.09
2023-04-09T12:49:58.451Z,100628.50
2023-04-09T12:52:46.690Z,100635.09
2023-04-09T12:55:34.715Z,100634.19
2023-04-09T12:58:22.422Z,100605.69
2023-04-09T13:01:10.152Z,100619.97
2023-04-09T13:03:58.248Z,100618.66
2023-04-09T13:06:46.976Z,100605.78
2023-04-09T13:09:35.559Z,100607.91
2023-04-09T13:12:23.823Z,100611.25
2023-04-09T13:15:12.069Z,100579.97
2023-04-09T13:17:59.851Z,100555.22
2023-04-09T13:20:47.666Z,100574.50
2023-04-09T13:23:35.740Z,100594.31
2023-04-09T13:26:23.432Z,100559.91
2023-04-09T13:29:11.295Z,100587.91
2023-04-09T13:31:59.149Z,100591.59
2023-04-09T13:34:46.939Z,100583.97
2023-04-09T13:37:34.664Z,100583.31
2023-04-09T13:40:22.435Z,100575.06
2023-04-09T13:43:10.140Z,100579.78
2023-04-09T13:45:58.059Z,100575.09
2023-04-09T13:48:46.080Z,100549.94
2023-04-09T13:51:34.285Z,100551.56
2023-04-09T13:54:21.935Z,100564.72
2023-04-09T13:57:10.689Z,100568.16
2023-04-09T14:00:02.205Z,100562.84
2023-04-09T14:02:52.481Z,100542.91
2023-04-09T14:05:40.524Z,100556.66
2023-04-09T14:08:30.082Z,100564.66
2023-04-09T14:11:17.756Z,100559.91
2023-04-09T14:14:05.813Z,100560.34
2023-04-09T14:16:53.585Z,100560.06
2023-04-09T14:19:41.438Z,100520.25
2023-04-09T14:22:29.301Z,100550.78
2023-04-09T14:25:17.510Z,100532.63
2023-04-09T14:28:05.242Z,100526.78
2023-04-09T14:30:53.065Z,100530.28
2023-04-09T14:33:41.633Z,100532.69
2023-04-09T14:36:29.418Z,100545.66
2023-04-09T14:39:17.975Z,100518.47
2023-04-09T14:42:05.798Z,100547.13
2023-04-09T14:44:53.376Z,100504.31
2023-04-09T14:47:41.074Z,100517.03
2023-04-09T14:50:32.483Z,100534.75
2023-04-09T14:53:20.222Z,100536.97
2023-04-09T14:56:08.079Z,100537.63
2023-04-09T14:58:55.807Z,100541.41
2023-04-09T15:01:43.588Z,100539.25
2023-04-09T15:04:31.635Z,100546.59
2023-04-09T15:07:19.410Z,100545.13
2023-04-09T15:10:07.850Z,100508.06
2023-04-09T15:12:55.628Z,100536.97
2023-04-09T15:15:45.117Z,100540.69
2023-04-09T15:18:33.885Z,100543.50
2023-04-09T15:21:22.474Z,100550.78
2023-04-09T15:24:10.159Z,100554.19
2023-04-09T15:26:57.955Z,100576.22
2023-04-09T15:29:45.662Z,100569.34
2023-04-09T15:32:33.530Z,100552.94
2023-04-09T15:35:25.390Z,100553.59
2023-04-09T15:38:13.231Z,100551.38
2023-04-09T15:41:01.139Z,100548.06
2023-04-09T15:43:48.903Z,100556.97
2023-04-09T15:46:38.295Z,100538.31
2023-04-09T15:49:26.214Z,100557.59
2023-04-09T15:52:13.811Z,100540.63
2023-04-09T15:55:02.119Z,100547.97
2023-04-09T15:57:50.323Z,100548.44
2023-04-09T16:00:38.199Z,100537.78
2023-04-09T16:03:26.482Z,100533.56
2023-04-09T16:06:14.711Z,100523.06
2023-04-09T16:09:02.469Z,100503.16
2023-04-09T16:11:51.339Z,100535.38
2023-04-09T16:14:40.573Z,100521.97
2023-04-09T16:17:28.913Z,100435.41
2023-04-09T16:20:16.941Z,100524.25
2023-04-09T16:23:04.723Z,100533.16
2023-04-09T16:25:53.338Z,100528.66
2023-04-09T16:28:41.332Z,100522.09
2023-04-09T16:31:29.329Z,100530.88
2023-04-09T16:34:23.790Z,100529.81
2023-04-09T16:37:11.656Z,100533.19
2023-04-09T16:40:03.736Z,100502.59
2023-04-09T16:42:51.501Z,100521.94
2023-04-09T16:45:39.353Z,100525.06
2023-04-09T16:48:27.410Z,100533.25
2023-04-09T16:51:15.445Z,100534.59
2023-04-09T16:54:03.341Z,100526.09
2023-04-09T16:56:51.389Z,100528.88
2023-04-09T16:59:41.063Z,100537.16
2023-04-09T17:02:32.595Z,100546.78
2023-04-09T17:05:21.622Z,100534.22
2023-04-09T17:08:12.190Z,100504.59
2023-04-09T17:11:02.622Z,100537.84
2023-04-09T17:13:54.493Z,100531.84
2023-04-09T17:16:42.286Z,100543.72
2023-04-09T17:19:29.998Z,100512.38
2023-04-09T17:22:18.294Z,100531.13
2023-04-09T17:25:06.783Z,100530.72
2023-04-09T17:27:54.858Z,100535.63
2023-04-09T17:30:43.164Z,100544.13
2023-04-09T17:33:31.446Z,100543.34
2023-04-09T17:36:23.618Z,100523.44
2023-04-09T17:39:12.847Z,100551.72
2023-04-09T17:42:02.043Z,100547.81
2023-04-09T17:44:50.110Z,100561.84
2023-04-09T17:47:39.399Z,100554.13
2023-04-09T17:50:29.925Z,100572.44
2023-04-09T17:53:18.064Z,100573.25
2023-04-09T17:56:06.258Z,100572.88
2023-04-09T17:58:54.545Z,100564.44
2023-04-09T18:01:44.727Z,100578.63
2023-04-09T18:04:34.036Z,100570.66
2023-04-09T18:07:22.274Z,100585.72
2023-04-09T18:10:11.007Z,100565.56
2023-04-09T18:12:59.039Z,100600.31
2023-04-09T18:15:47.396Z,100599.47
2023-04-09T18:18:35.217Z,100616.66
2023-04-09T18:21:41.362Z,100579.06
2023-04-09T18:24:32.955Z,100612.94
2023-04-09T18:27:21.970Z,100629.22
2023-04-09T18:30:12.490Z,100624.50
2023-04-09T18:33:00.285Z,100631.81
2023-04-09T18:35:47.973Z,100620.88
2023-04-09T18:38:37.158Z,100622.91
2023-04-09T18:41:28.161Z,100610.19
2023-04-09T18:44:16.863Z,100627.88
2023-04-09T18:47:06.134Z,100633.66
2023-04-09T18:49:54.010Z,100635.00
2023-04-09T18:52:41.720Z,100624.53
2023-04-09T18:55:29.757Z,100647.84
2023-04-09T18:58:17.814Z,100639.50
2023-04-09T19:01:12.047Z,100561.34
2023-04-09T19:03:59.968Z,100645.59
2023-04-09T19:06:49.488Z,100641.88
2023-04-09T19:09:37.699Z,100644.22
2023-04-09T19:12:27.310Z,100626.72
2023-04-09T19:15:15.012Z,100641.63
2023-04-09T19:18:02.879Z,100610.16
2023-04-09T19:20:50.541Z,100639.94
2023-04-09T19:23:38.410Z,100647.50
2023-04-09T19:26:26.807Z,100629.75
2023-04-09T19:29:14.567Z,100628.00
2023-04-09T19:32:03.240Z,100623.03
2023-04-09T19:34:51.331Z,100628.03
2023-04-09T19:37:39.898Z,100612.47
2023-04-09T19:40:45.364Z,100647.81
2023-04-09T19:43:33.192Z,100639.34
2023-04-09T19:46:20.965Z,100638.38
2023-04-09T19:49:08.637Z,100636.25
2023-04-09T19:51:56.417Z,100645.94
2023-04-09T19:54:44.076Z,100647.31
2023-04-09T19:57:32.037Z,100650.91
2023-04-09T20:00:19.819Z,100644.25
2023-04-09T20:03:08.215Z,100644.75
2023-04-09T20:05:56.000Z,100617.75
2023-04-09T20:08:43.936Z,100640.84
2023-04-09T20:11:31.823Z,100637.50
2023-04-09T20:14:20.040Z,100630.69
2023-04-09T20:17:09.954Z,100643.06
2023-04-09T20:19:57.847Z,100614.31
2023-04-09T20:22:47.832Z,100638.44
2023-04-09T20:25:36.942Z,100650.09
2023-04-09T20:28:24.664Z,100636.84
2023-04-09T20:31:12.480Z,100604.31
2023-04-09T20:34:00.184Z,100638.91
2023-04-09T20:36:49.032Z,100644.75
2023-04-09T20:39:36.905Z,100614.56
2023-04-09T20:42:24.661Z,100640.22
2023-04-09T20:45:12.295Z,100634.44
2023-04-09T20:48:00.205Z,100631.38
2023-04-09T20:50:47.890Z,100638.81
2023-04-09T20:53:35.969Z,100615.03
2023-04-09T20:56:23.954Z,100635.22
2023-04-09T20:59:12.152Z,100554.91
2023-04-09T21:01:59.943Z,100613.81
2023-04-09T21:04:47.854Z,100638.22
2023-04-09T21:07:35.534Z,100555.84
2023-04-09T21:10:23.322Z,100596.25
2023-04-09T21:13:10.927Z,100627.66
2023-04-09T21:15:58.800Z,100606.63
2023-04-09T21:18:46.415Z,100619.09
2023-04-09T21:21:35.155Z,100622.88
2023-04-09T21:24:22.952Z,100590.13
2023-04-09T21:27:10.952Z,100619.34
2023-04-09T21:29:59.155Z,100608.72
2023-04-09T21:32:47.012Z,100574.47
2023-04-09T21:35:36.552Z,100637.34
2023-04-09T21:38:24.429Z,100632.63
2023-04-09T21:41:12.126Z,100591.13
2023-04-09T21:44:05.397Z,100582.06
2023-04-09T21:46:53.529Z,100595.31
2023-04-09T21:49:41.435Z,100631.28
2023-04-09T21:52:29.163Z,100611.59
2023-04-09T21:55:16.916Z,100619.25
2023-04-09T21:58:04.551Z,100590.81
2023-04-09T22:00:52.492Z,100614.25
2023-04-09T22:03:40.326Z,100620.38
2023-04-09T22:06:29.276Z,100620.19
2023-04-09T22:09:17.312Z,100617.88
2023-04-09T22:12:05.647Z,100593.19
2023-04-09T22:14:53.307Z,100623.41
2023-04-09T22:17:41.234Z,100621.31
2023-04-09T22:20:28.923Z,100584.03
2023-04-09T22:23:19.815Z,100621.19
2023-04-09T22:26:07.511Z,100624.56
2023-04-09T22:28:55.572Z,100627.34
2023-04-09T22:31:43.546Z,100619.28
2023-04-09T22:34:31.333Z,100591.81
2023-04-09T22:37:18.958Z,100615.84
2023-04-09T22:40:14.272Z,100613.13
2023-04-09T22:43:02.008Z,100611.88
2023-04-09T22:45:54.752Z,100611.84
2023-04-09T22:48:44.876Z,100607.97
2023-04-09T22:51:34.996Z,100590.56
2023-04-09T22:54:22.664Z,100598.16
2023-04-09T22:57:10.584Z,100618.19
2023-04-09T22:59:58.289Z,100585.09
2023-04-09T23:02:47.886Z,100604.00
2023-04-09T23:05:35.873Z,100603.50
2023-04-09T23:08:23.718Z,100619.34
2023-04-09T23:11:11.823Z,100612.09
2023-04-09T23:13:59.550Z,100622.09
2023-04-09T23:21:00.109Z,100585.06
2023-04-09T23:24:14.204Z,100584.44
2023-04-09T23:27:02.928Z,100617.41
2023-04-09T23:29:50.565Z,100595.13
2023-04-09T23:32:38.434Z,100598.19
2023-04-09T23:35:26.108Z,100614.03
2023-04-09T23:38:15.320Z,100619.84
2023-04-09T23:41:02.986Z,100610.78
2023-04-09T23:43:51.614Z,100588.47
2023-04-09T23:46:39.425Z,100579.56
2023-04-09T23:49:30.795Z,100605.72
2023-04-09T23:52:18.433Z,100607.53
2023-04-09T23:55:09.890Z,100594.41
2023-04-09T23:57:57.545Z,100595.22
